Time;durP1;ratioP1;P1;durP2;ratioP2;P2;SDS_P1;SDS_P2;PMS_P1;PMS_P2;Temp;Humidity;BMP_temperature;BMP_pressure;BME280_temperature;BME280_humidity;BME280_pressure;Samples;Min_cycle;Max_cycle;Signal;HPM_P1;HPM_P2
2021/04/24 00:01:33;;;;;;;11.10;7.35;;;5.90;99.90;;;;;;5048389;28;20219;-36
2021/04/24 00:04:00;;;;;;;9.57;6.25;;;6.20;99.90;;;;;;5049383;28;20676;-34
2021/04/24 00:06:28;;;;;;;9.30;6.95;;;6.40;99.90;;;;;;5051027;28;20191;-34
2021/04/24 00:09:48;;;;;;;;;;;;;;;;;;;;;
2021/04/24 00:16:57;;;;;;;6.63;4.13;;;6.00;99.90;;;;;;4973729;28;20324;-38
2021/04/24 00:23:29;;;;;;;10.60;6.05;;;5.60;99.90;;;;;;5009446;28;20194;-33
2021/04/24 00:25:56;;;;;;;8.15;5.85;;;5.50;99.90;;;;;;5049495;28;20223;-34
2021/04/24 00:28:23;;;;;;;11.48;5.32;;;5.50;99.90;;;;;;5049804;28;20239;-34
2021/04/24 00:30:50;;;;;;;11.32;6.80;;;5.70;99.90;;;;;;5051299;28;20187;-34
2021/04/24 00:33:18;;;;;;;7.28;4.53;;;5.70;99.90;;;;;;5049438;28;20253;-34
2021/04/24 00:35:44;;;;;;;8.75;4.80;;;5.80;99.90;;;;;;5050307;28;20278;-36
2021/04/24 00:38:17;;;;;;;11.40;4.97;;;5.70;99.90;;;;;;5050089;28;20624;-33
2021/04/24 00:40:45;;;;;;;9.32;4.90;;;5.50;99.90;;;;;;5048277;28;20725;-33
2021/04/24 00:43:14;;;;;;;11.82;4.55;;;5.50;99.90;;;;;;5051622;28;20222;-33
2021/04/24 00:45:41;;;;;;;8.98;5.10;;;5.50;99.90;;;;;;5049584;28;20253;-34
2021/04/24 00:52:02;;;;;;;5.22;4.53;;;5.20;99.90;;;;;;5045546;28;20229;-34
2021/04/24 00:54:31;;;;;;;9.27;5.57;;;5.10;99.90;;;;;;5050933;28;20298;-35
2021/04/24 00:56:58;;;;;;;8.95;4.85;;;5.00;99.90;;;;;;5043242;28;20211;-34
2021/04/24 01:03:31;;;;;;;8.38;5.47;;;4.90;99.90;;;;;;5043046;28;20203;-36
2021/04/24 01:05:58;;;;;;;12.68;5.53;;;4.90;99.90;;;;;;5048639;28;20207;-34
2021/04/24 01:08:29;;;;;;;7.60;5.15;;;4.80;99.90;;;;;;5049763;28;20286;-35
2021/04/24 01:10:56;;;;;;;12.52;6.22;;;5.10;99.90;;;;;;5046890;28;20289;-34
2021/04/24 01:13:24;;;;;;;13.27;5.85;;;5.20;99.90;;;;;;5051309;28;20195;-35
2021/04/24 01:15:51;;;;;;;6.47;5.15;;;5.20;99.90;;;;;;5049705;28;20253;-33
2021/04/24 01:18:18;;;;;;;8.25;4.95;;;5.00;99.90;;;;;;5049979;28;20194;-35
2021/04/24 01:20:47;;;;;;;7.18;5.78;;;5.00;99.90;;;;;;5051602;28;20298;-34
2021/04/24 01:27:47;;;;;;;8.52;4.88;;;4.90;99.90;;;;;;5048669;28;20172;-35
2021/04/24 01:30:19;;;;;;;8.77;4.72;;;5.10;99.90;;;;;;5047689;28;20195;-34
2021/04/24 01:32:46;;;;;;;8.63;5.82;;;5.10;99.90;;;;;;5050768;28;20227;-35
2021/04/24 01:35:16;;;;;;;17.63;6.70;;;5.20;99.90;;;;;;5051463;28;20308;-36
2021/04/24 01:37:44;;;;;;;11.18;6.50;;;5.20;99.90;;;;;;5051009;28;20332;-36
2021/04/24 01:40:14;;;;;;;9.00;6.22;;;5.20;99.90;;;;;;5050934;28;20207;-34
2021/04/24 01:42:41;;;;;;;10.40;5.60;;;5.20;99.90;;;;;;5050472;28;20313;-35
2021/04/24 01:45:10;;;;;;;7.57;5.53;;;5.20;99.90;;;;;;5050517;28;20237;-34
2021/04/24 01:47:39;;;;;;;7.78;5.90;;;5.00;99.90;;;;;;5044010;28;20283;-35
2021/04/24 01:50:07;;;;;;;13.73;6.28;;;5.10;99.90;;;;;;5050439;28;20712;-34
2021/04/24 01:52:34;;;;;;;14.07;6.82;;;5.10;99.90;;;;;;5050138;28;20311;-35
2021/04/24 01:55:01;;;;;;;12.10;6.97;;;5.00;99.90;;;;;;5050475;28;20214;-34
2021/04/24 01:57:28;;;;;;;16.48;6.72;;;4.90;99.90;;;;;;5048889;28;20286;-35
2021/04/24 01:59:54;;;;;;;12.23;5.95;;;5.00;99.90;;;;;;5050161;28;20199;-34
2021/04/24 02:02:26;;;;;;;11.18;6.35;;;5.00;99.90;;;;;;5049844;28;20612;-35
2021/04/24 02:04:53;;;;;;;12.63;6.70;;;5.20;99.90;;;;;;5047957;28;20656;-35
2021/04/24 02:07:20;;;;;;;10.73;6.68;;;5.30;99.90;;;;;;5049875;28;20278;-34
2021/04/24 02:09:47;;;;;;;13.20;7.10;;;5.30;99.90;;;;;;5050280;28;20273;-35
2021/04/24 02:12:14;;;;;;;13.60;6.18;;;5.30;99.90;;;;;;5049798;28;20211;-35
2021/04/24 02:14:44;;;;;;;11.98;6.65;;;5.30;99.90;;;;;;5050293;28;20199;-34
2021/04/24 02:17:11;;;;;;;10.15;5.75;;;5.20;99.90;;;;;;5049312;28;20215;-35
2021/04/24 02:19:42;;;;;;;12.18;7.38;;;5.20;99.90;;;;;;5048502;28;20195;-34
2021/04/24 02:22:11;;;;;;;8.18;5.50;;;5.10;99.90;;;;;;5049429;28;20724;-35
2021/04/24 02:24:43;;;;;;;12.90;7.65;;;5.00;99.90;;;;;;5050204;28;20191;-34
2021/04/24 02:27:11;;;;;;;7.78;5.95;;;4.90;99.90;;;;;;5049949;28;20203;-33
2021/04/24 02:29:40;;;;;;;12.10;6.03;;;5.10;99.90;;;;;;5049205;28;20206;-37
2021/04/24 02:32:08;;;;;;;11.85;6.60;;;5.00;99.90;;;;;;5049813;28;20245;-33
2021/04/24 02:34:37;;;;;;;12.50;7.20;;;4.80;99.90;;;;;;5049070;28;20274;-33
2021/04/24 02:37:04;;;;;;;12.32;6.97;;;4.70;99.90;;;;;;5049556;28;20391;-35
2021/04/24 02:39:33;;;;;;;12.18;7.60;;;4.80;99.90;;;;;;5049639;28;20223;-35
2021/04/24 02:42:02;;;;;;;11.60;5.95;;;4.90;99.90;;;;;;5048989;28;20273;-34
2021/04/24 02:44:29;;;;;;;13.02;7.55;;;5.00;99.90;;;;;;5049526;28;20671;-35
2021/04/24 02:46:56;;;;;;;9.25;6.40;;;5.30;99.90;;;;;;5049741;28;20278;-34
2021/04/24 02:49:23;;;;;;;11.45;6.97;;;5.30;99.90;;;;;;5047690;28;20191;-34
2021/04/24 02:51:50;;;;;;;20.50;7.85;;;5.30;99.90;;;;;;5049127;28;20364;-34
2021/04/24 02:54:17;;;;;;;9.82;5.72;;;5.50;99.90;;;;;;5049599;28;20260;-35
2021/04/24 02:56:45;;;;;;;11.73;6.55;;;5.40;99.90;;;;;;5049142;28;20267;-34
2021/04/24 02:59:11;;;;;;;9.25;6.50;;;5.50;99.90;;;;;;5049051;28;20727;-35
2021/04/24 03:01:38;;;;;;;13.75;7.28;;;5.70;99.90;;;;;;5043805;28;20242;-35
2021/04/24 03:04:05;;;;;;;13.38;7.63;;;5.80;99.90;;;;;;5047975;28;20667;-34
2021/04/24 03:06:32;;;;;;;10.05;5.57;;;5.80;99.90;;;;;;5049379;28;20193;-34
2021/04/24 03:08:59;;;;;;;13.45;6.68;;;5.70;99.90;;;;;;5048777;28;20577;-35
2021/04/24 03:11:25;;;;;;;9.90;6.93;;;5.70;99.90;;;;;;5048891;28;20268;-34
2021/04/24 03:13:53;;;;;;;12.82;6.68;;;5.80;99.90;;;;;;5049475;28;20203;-34
2021/04/24 03:16:20;;;;;;;13.55;7.75;;;5.60;99.90;;;;;;5049234;28;20298;-36
2021/04/24 03:18:47;;;;;;;14.82;7.78;;;5.70;99.90;;;;;;5048395;28;20272;-35
2021/04/24 03:21:13;;;;;;;10.60;7.43;;;5.60;99.90;;;;;;5049160;28;20302;-34
2021/04/24 03:23:40;;;;;;;12.10;7.03;;;5.80;99.90;;;;;;5048946;28;20199;-34
2021/04/24 03:26:07;;;;;;;20.80;7.32;;;5.80;99.90;;;;;;5049124;28;20202;-35
2021/04/24 03:28:34;;;;;;;12.68;6.65;;;5.70;99.90;;;;;;5048823;28;20282;-34
2021/04/24 03:31:01;;;;;;;13.20;6.40;;;5.60;99.90;;;;;;5049385;28;20231;-33
2021/04/24 03:33:28;;;;;;;11.63;7.05;;;5.70;99.90;;;;;;5049055;28;20238;-34
2021/04/24 03:35:54;;;;;;;13.73;7.88;;;5.50;99.90;;;;;;5049087;28;20199;-34
2021/04/24 03:38:21;;;;;;;19.63;7.20;;;5.50;99.90;;;;;;5048904;28;20213;-35
2021/04/24 03:40:48;;;;;;;13.82;7.57;;;5.50;99.90;;;;;;5029584;28;20746;-34
2021/04/24 03:43:15;;;;;;;13.20;7.85;;;5.60;99.90;;;;;;5045692;28;20280;-34
2021/04/24 03:45:42;;;;;;;13.35;8.43;;;5.70;99.90;;;;;;5049625;28;20462;-35
2021/04/24 03:48:09;;;;;;;10.98;7.85;;;5.80;99.90;;;;;;5048990;28;20565;-34
2021/04/24 03:50:36;;;;;;;9.93;8.25;;;6.00;99.90;;;;;;5048460;28;20231;-36
2021/04/24 03:53:03;;;;;;;14.77;9.10;;;6.00;99.90;;;;;;5048488;28;20304;-35
2021/04/24 03:55:30;;;;;;;16.65;9.73;;;6.00;99.90;;;;;;5048943;28;20195;-35
2021/04/24 03:57:57;;;;;;;11.27;8.80;;;5.90;99.90;;;;;;5048489;28;20223;-35
2021/04/24 04:00:26;;;;;;;15.27;8.20;;;5.90;99.90;;;;;;5049374;28;20785;-35
2021/04/24 04:02:56;;;;;;;18.80;8.40;;;5.90;99.90;;;;;;5049495;28;20261;-35
2021/04/24 04:05:26;;;;;;;11.98;9.05;;;6.00;99.90;;;;;;5093838;22;20226;-78
2021/04/24 04:07:54;;;;;;;20.27;8.20;;;6.00;99.90;;;;;;5040926;28;20196;-79
2021/04/24 04:10:21;;;;;;;12.27;7.78;;;6.00;99.90;;;;;;5061828;28;20286;-79
2021/04/24 04:12:49;;;;;;;13.25;8.15;;;5.90;99.90;;;;;;5057213;28;20354;-79
2021/04/24 04:15:17;;;;;;;14.00;9.40;;;6.00;99.90;;;;;;5071399;28;20206;-79
2021/04/24 04:17:48;;;;;;;11.48;8.98;;;6.00;99.90;;;;;;5055155;28;20586;-79
2021/04/24 04:20:15;;;;;;;10.98;8.68;;;5.90;99.90;;;;;;5079786;28;20624;-79
2021/04/24 04:22:44;;;;;;;15.73;8.35;;;5.60;99.90;;;;;;5078282;28;20230;-79
2021/04/24 04:25:12;;;;;;;16.90;9.05;;;5.50;99.90;;;;;;5047768;28;20229;-79
2021/04/24 04:27:38;;;;;;;12.48;10.02;;;5.70;99.90;;;;;;5081824;28;20210;-79
2021/04/24 04:30:08;;;;;;;12.73;9.85;;;5.80;99.90;;;;;;5054333;28;20200;-79
2021/04/24 04:32:34;;;;;;;14.25;9.32;;;5.70;99.90;;;;;;5062701;28;20638;-79
2021/04/24 04:35:01;;;;;;;17.50;8.90;;;5.70;99.90;;;;;;5060135;28;20202;-79
2021/04/24 04:37:29;;;;;;;13.43;8.43;;;5.70;99.90;;;;;;5044077;28;20191;-79
2021/04/24 04:39:56;;;;;;;14.73;8.85;;;5.60;99.90;;;;;;5063655;28;20207;-79
2021/04/24 04:42:22;;;;;;;18.35;9.75;;;5.60;99.90;;;;;;5065011;28;20218;-79
2021/04/24 04:44:49;;;;;;;11.50;7.63;;;5.40;99.90;;;;;;5064203;28;20194;-79
2021/04/24 04:47:16;;;;;;;16.30;8.63;;;5.50;99.90;;;;;;5062880;28;20290;-79
2021/04/24 04:49:43;;;;;;;14.75;9.00;;;5.40;99.90;;;;;;5053699;28;20194;-80
2021/04/24 04:52:11;;;;;;;11.90;7.15;;;5.60;99.90;;;;;;5075573;28;20215;-79
2021/04/24 04:54:37;;;;;;;12.80;9.73;;;5.60;99.90;;;;;;5074898;28;20214;-79
2021/04/24 04:57:06;;;;;;;13.13;8.02;;;5.60;99.90;;;;;;5048020;28;20229;-80
2021/04/24 04:59:32;;;;;;;12.55;8.85;;;5.30;99.90;;;;;;5042327;28;20294;-79
2021/04/24 05:01:59;;;;;;;12.60;8.23;;;5.40;99.90;;;;;;5048464;28;20230;-79
2021/04/24 05:04:26;;;;;;;13.38;9.07;;;5.50;99.90;;;;;;5042431;28;20195;-79
2021/04/24 05:06:53;;;;;;;14.15;8.82;;;5.40;99.90;;;;;;5075238;28;20218;-79
2021/04/24 05:09:22;;;;;;;16.00;9.27;;;5.50;99.90;;;;;;5052345;28;20195;-79
2021/04/24 05:11:49;;;;;;;13.52;8.85;;;5.60;99.90;;;;;;5067213;28;20294;-79
2021/04/24 05:14:17;;;;;;;16.00;8.98;;;5.70;99.90;;;;;;5079757;28;20198;-79
2021/04/24 05:16:45;;;;;;;9.52;7.82;;;5.80;99.90;;;;;;5071744;28;20190;-79
2021/04/24 05:19:12;;;;;;;17.70;9.52;;;5.90;99.90;;;;;;5060802;28;20203;-79
2021/04/24 05:21:39;;;;;;;14.43;9.55;;;5.90;99.90;;;;;;5073171;28;20706;-79
2021/04/24 05:24:06;;;;;;;12.73;9.35;;;6.00;99.90;;;;;;5063875;28;20274;-80
2021/04/24 05:26:34;;;;;;;13.70;8.63;;;6.10;99.90;;;;;;5068202;28;20194;-79
2021/04/24 05:29:00;;;;;;;11.85;7.55;;;5.90;99.90;;;;;;5076019;28;20206;-80
2021/04/24 05:31:28;;;;;;;10.65;8.98;;;5.90;99.90;;;;;;5055589;28;20218;-80
2021/04/24 05:33:57;;;;;;;13.13;8.05;;;6.00;99.90;;;;;;5083145;28;20198;-80
2021/04/24 05:36:23;;;;;;;18.55;10.15;;;6.20;99.90;;;;;;5081582;28;20222;-79
2021/04/24 05:38:51;;;;;;;16.13;10.05;;;6.20;99.90;;;;;;5073093;28;20195;-80
2021/04/24 05:41:21;;;;;;;17.52;10.23;;;6.30;99.90;;;;;;5081762;28;20293;-80
2021/04/24 05:43:48;;;;;;;12.68;8.60;;;6.20;99.90;;;;;;5063962;28;20278;-79
2021/04/24 05:46:16;;;;;;;11.90;8.93;;;6.20;99.90;;;;;;5062948;28;20678;-79
2021/04/24 05:48:44;;;;;;;14.90;9.25;;;6.40;99.90;;;;;;5045381;28;20191;-79
2021/04/24 05:51:12;;;;;;;12.10;7.45;;;6.40;99.90;;;;;;5074228;28;20202;-80
2021/04/24 05:53:38;;;;;;;13.50;8.32;;;6.60;99.90;;;;;;5081371;28;20202;-79
2021/04/24 05:56:06;;;;;;;18.00;9.00;;;6.70;99.90;;;;;;5081121;28;20221;-79
2021/04/24 05:58:32;;;;;;;12.27;8.63;;;6.60;99.90;;;;;;5075392;28;20191;-79
2021/04/24 06:00:59;;;;;;;15.40;9.85;;;6.70;99.90;;;;;;5053788;28;20202;-79
2021/04/24 06:03:26;;;;;;;16.10;8.85;;;6.70;99.90;;;;;;5045046;28;20233;-79
2021/04/24 06:05:54;;;;;;;12.52;8.15;;;6.80;99.90;;;;;;5075654;28;20202;-79
2021/04/24 06:08:21;;;;;;;13.73;9.27;;;6.80;99.90;;;;;;5080382;28;20211;-79
2021/04/24 06:10:48;;;;;;;13.00;9.27;;;6.70;99.90;;;;;;5078016;28;20200;-79
2021/04/24 06:13:15;;;;;;;12.43;9.60;;;6.60;99.90;;;;;;5048402;28;20215;-79
2021/04/24 06:15:41;;;;;;;12.35;8.55;;;6.80;99.90;;;;;;5041940;28;20207;-79
2021/04/24 06:18:09;;;;;;;11.48;8.80;;;7.10;99.90;;;;;;5025635;28;20608;-80
2021/04/24 06:20:37;;;;;;;13.05;9.35;;;7.10;99.90;;;;;;5059270;28;20200;-79
2021/04/24 06:23:05;;;;;;;15.00;9.00;;;7.10;99.90;;;;;;5041421;28;20216;-79
2021/04/24 06:25:32;;;;;;;13.68;9.65;;;7.10;99.90;;;;;;5047370;28;20205;-79
2021/04/24 06:27:59;;;;;;;10.85;8.35;;;7.20;99.90;;;;;;5076676;28;20219;-79
2021/04/24 06:30:25;;;;;;;14.18;8.75;;;7.40;99.90;;;;;;5063777;28;20218;-79
2021/04/24 06:32:54;;;;;;;13.25;8.32;;;7.40;99.90;;;;;;5081931;28;20214;-79
2021/04/24 06:35:22;;;;;;;10.95;7.50;;;7.40;99.90;;;;;;5064480;28;20217;-79
2021/04/24 06:37:49;;;;;;;12.07;8.05;;;7.40;99.90;;;;;;5048684;28;20289;-79
2021/04/24 06:40:19;;;;;;;11.57;7.28;;;7.40;99.90;;;;;;5066689;28;20210;-79
2021/04/24 06:42:46;;;;;;;13.32;8.15;;;7.60;99.90;;;;;;5080541;28;20218;-79
2021/04/24 06:45:14;;;;;;;11.70;8.07;;;7.60;99.90;;;;;;5064085;28;20210;-79
2021/04/24 06:47:41;;;;;;;11.75;7.90;;;7.60;99.90;;;;;;5082394;28;20562;-79
2021/04/24 06:50:12;;;;;;;23.27;8.93;;;7.70;99.90;;;;;;5045294;28;20675;-79
2021/04/24 06:52:39;;;;;;;17.23;8.30;;;8.00;99.90;;;;;;5072255;28;20214;-79
2021/04/24 06:55:07;;;;;;;12.95;7.10;;;8.40;99.90;;;;;;5073517;28;20191;-79
2021/04/24 06:57:35;;;;;;;13.07;6.82;;;8.70;99.90;;;;;;5067846;28;20700;-79
2021/04/24 07:00:01;;;;;;;10.75;6.93;;;8.80;99.90;;;;;;5069280;28;20190;-79
2021/04/24 07:02:28;;;;;;;11.02;7.00;;;8.80;99.90;;;;;;5077771;28;20293;-79
2021/04/24 07:04:55;;;;;;;10.63;7.15;;;8.90;99.90;;;;;;5073307;28;20231;-79
2021/04/24 07:07:22;;;;;;;8.27;6.38;;;9.10;99.90;;;;;;5061376;28;20213;-79
2021/04/24 07:09:48;;;;;;;16.27;7.75;;;9.20;99.90;;;;;;5066049;28;20724;-79
2021/04/24 07:12:15;;;;;;;10.52;6.95;;;9.10;99.90;;;;;;5077805;28;20211;-80
2021/04/24 07:14:43;;;;;;;11.20;6.90;;;9.00;99.90;;;;;;5058338;28;20195;-79
2021/04/24 07:17:10;;;;;;;15.07;7.35;;;8.70;99.90;;;;;;5051319;28;20622;-80
2021/04/24 07:19:37;;;;;;;9.82;6.22;;;8.80;99.90;;;;;;5068181;28;20361;-79
2021/04/24 07:22:04;;;;;;;9.82;6.30;;;8.80;99.90;;;;;;5078020;28;20218;-79
2021/04/24 07:24:30;;;;;;;7.70;6.00;;;8.90;99.90;;;;;;5055840;28;20222;-79
2021/04/24 07:26:57;;;;;;;14.27;6.32;;;8.90;99.90;;;;;;5073136;28;20210;-79
2021/04/24 07:29:24;;;;;;;13.32;5.70;;;8.90;99.90;;;;;;5069100;28;20202;-79
2021/04/24 07:31:52;;;;;;;9.80;6.38;;;8.90;99.90;;;;;;5059544;28;20276;-80
2021/04/24 07:34:18;;;;;;;10.80;6.13;;;9.00;99.90;;;;;;5050202;28;20214;-80
2021/04/24 07:36:45;;;;;;;13.50;6.80;;;9.00;99.90;;;;;;5062943;28;20190;-80
2021/04/24 07:43:18;;;;;;;13.38;6.38;;;9.00;99.90;;;;;;5056943;28;20661;-79
2021/04/24 07:45:45;;;;;;;8.55;5.85;;;9.50;99.90;;;;;;5040102;28;20202;-79
2021/04/24 07:48:13;;;;;;;8.48;6.03;;;9.80;99.90;;;;;;5044113;28;20276;-80
2021/04/24 07:50:40;;;;;;;7.97;5.25;;;9.70;99.90;;;;;;5028427;28;20378;-79
2021/04/24 07:53:06;;;;;;;8.25;5.55;;;9.60;99.90;;;;;;5050012;28;20380;-79
2021/04/24 07:55:33;;;;;;;8.77;5.32;;;9.60;99.90;;;;;;5061605;28;20249;-80
2021/04/24 07:58:00;;;;;;;6.90;5.28;;;9.70;99.90;;;;;;5070304;28;20198;-79
2021/04/24 08:00:27;;;;;;;8.70;5.30;;;9.40;99.90;;;;;;5074491;28;20273;-79
2021/04/24 08:02:54;;;;;;;13.45;6.15;;;9.40;99.90;;;;;;5045751;28;20238;-78
2021/04/24 08:05:21;;;;;;;8.82;5.68;;;9.50;99.90;;;;;;5048521;28;20619;-83
2021/04/24 08:07:48;;;;;;;8.52;6.38;;;9.40;99.90;;;;;;5069683;28;20222;-82
2021/04/24 08:10:15;;;;;;;9.27;6.70;;;9.30;99.90;;;;;;5063577;28;20222;-82
2021/04/24 08:12:41;;;;;;;6.13;5.53;;;9.30;99.90;;;;;;5083086;28;20202;-82
2021/04/24 08:15:10;;;;;;;8.93;6.72;;;9.30;99.90;;;;;;5093828;28;20191;-83
2021/04/24 08:17:38;;;;;;;9.45;6.55;;;9.30;99.90;;;;;;5092606;28;20206;-83
2021/04/24 08:20:07;;;;;;;14.40;6.55;;;9.50;99.90;;;;;;5059395;28;20195;-82
2021/04/24 08:22:35;;;;;;;10.45;6.38;;;9.60;99.90;;;;;;5071077;28;20223;-83
2021/04/24 08:25:02;;;;;;;9.93;6.97;;;9.60;99.90;;;;;;5040185;28;20187;-83
2021/04/24 08:27:30;;;;;;;12.68;7.13;;;9.60;99.90;;;;;;5062166;28;20189;-83
2021/04/24 08:29:57;;;;;;;10.75;7.45;;;9.50;99.90;;;;;;5036613;28;20208;-82
2021/04/24 08:32:24;;;;;;;8.35;5.22;;;9.40;99.90;;;;;;5076978;28;20207;-82
2021/04/24 08:34:50;;;;;;;13.57;5.47;;;9.60;99.90;;;;;;5057337;28;20628;-82
2021/04/24 08:37:17;;;;;;;11.40;5.07;;;10.00;99.90;;;;;;5061983;28;20219;-83
2021/04/24 08:39:45;;;;;;;8.82;5.15;;;10.10;99.90;;;;;;5076009;28;20217;-83
2021/04/24 08:42:14;;;;;;;7.03;5.47;;;9.90;99.90;;;;;;5079923;28;20221;-83
2021/04/24 08:44:42;;;;;;;9.48;5.80;;;9.70;99.90;;;;;;5049122;28;20262;-83
2021/04/24 08:47:10;;;;;;;9.85;7.63;;;9.50;99.90;;;;;;5051331;28;20226;-83
2021/04/24 08:49:40;;;;;;;8.65;6.55;;;9.40;99.90;;;;;;5058386;28;20198;-83
2021/04/24 08:52:07;;;;;;;9.20;7.60;;;9.30;99.90;;;;;;5062492;28;20208;-83
2021/04/24 08:54:35;;;;;;;10.70;7.57;;;9.20;99.90;;;;;;5058673;28;20199;-83
2021/04/24 08:57:03;;;;;;;10.38;6.10;;;8.80;99.90;;;;;;5065316;28;20195;-83
2021/04/24 08:59:30;;;;;;;15.93;7.40;;;8.40;99.90;;;;;;5064183;28;20225;-83
2021/04/24 09:01:57;;;;;;;6.57;5.85;;;8.50;99.90;;;;;;5076532;28;20636;-83
2021/04/24 09:04:24;;;;;;;10.25;5.65;;;8.50;99.90;;;;;;5069871;28;20218;-83
2021/04/24 09:06:52;;;;;;;7.22;5.30;;;8.60;99.90;;;;;;5057519;28;20277;-82
2021/04/24 09:09:25;;;;;;;10.73;7.28;;;8.80;99.90;;;;;;5071695;28;20277;-83
2021/04/24 09:11:56;;;;;;;7.35;5.90;;;9.60;99.90;;;;;;5030603;28;20242;-82
2021/04/24 09:14:26;;;;;;;7.15;5.60;;;10.10;99.90;;;;;;5057608;28;20196;-83
2021/04/24 09:16:54;;;;;;;6.53;4.95;;;10.60;99.90;;;;;;5060005;28;20563;-83
2021/04/24 09:19:29;;;;;;;7.38;5.88;;;10.70;99.90;;;;;;5059793;28;20594;-84
2021/04/24 09:22:11;;;;;;;11.60;5.72;;;10.90;99.90;;;;;;5063762;28;20226;-82
2021/04/24 09:24:40;;;;;;;10.98;5.53;;;10.80;99.90;;;;;;5030748;28;20202;-79
2021/04/24 09:27:07;;;;;;;9.23;6.13;;;10.60;99.90;;;;;;5059866;28;20215;-80
2021/04/24 09:29:35;;;;;;;10.50;5.75;;;10.70;99.90;;;;;;5058275;28;20187;-79
2021/04/24 09:32:18;;;;;;;7.95;4.70;;;11.10;99.90;;;;;;5058113;28;20219;-79
2021/04/24 09:34:47;;;;;;;9.20;5.22;;;11.20;99.90;;;;;;5043156;28;20192;-79
2021/04/24 09:37:18;;;;;;;9.88;5.85;;;10.90;99.90;;;;;;5044255;28;20221;-79
2021/04/24 09:39:46;;;;;;;5.55;5.05;;;10.90;99.90;;;;;;5057035;28;20214;-79
2021/04/24 09:42:34;;;;;;;5.97;5.07;;;11.50;99.90;;;;;;5058948;28;20227;-79
2021/04/24 09:45:03;;;;;;;12.38;5.05;;;11.90;99.90;;;;;;5046535;28;20195;-78
2021/04/24 09:47:43;;;;;;;4.70;3.78;;;12.00;99.90;;;;;;5056228;28;20199;-79
2021/04/24 09:50:13;;;;;;;6.55;5.55;;;11.90;99.90;;;;;;5039869;28;20316;-80
2021/04/24 09:52:42;;;;;;;10.02;6.47;;;11.80;99.90;;;;;;5067476;28;20211;-81
2021/04/24 09:55:14;;;;;;;13.48;12.15;;;11.40;99.90;;;;;;5052614;28;20260;-81
2021/04/24 09:57:41;;;;;;;8.23;5.80;;;11.30;99.90;;;;;;5062537;28;20700;-79
2021/04/24 10:00:14;;;;;;;8.10;5.90;;;11.30;99.90;;;;;;5049812;28;20218;-80
2021/04/24 10:02:45;;;;;;;8.75;5.50;;;11.70;99.90;;;;;;5062110;28;20505;-77
2021/04/24 10:05:15;;;;;;;8.32;5.30;;;11.80;99.90;;;;;;5065461;28;20213;-79
2021/04/24 10:07:45;;;;;;;10.95;6.10;;;11.80;99.90;;;;;;5069061;28;20201;-79
2021/04/24 10:10:13;;;;;;;8.02;4.80;;;12.20;99.90;;;;;;5055216;28;20195;-78
2021/04/24 10:12:40;;;;;;;8.73;5.45;;;12.50;99.90;;;;;;5035849;28;20226;-79
2021/04/24 10:15:09;;;;;;;7.05;5.70;;;12.60;99.90;;;;;;5057748;28;20266;-79
2021/04/24 10:17:35;;;;;;;7.15;5.18;;;12.10;99.90;;;;;;5052380;28;20222;-78
2021/04/24 10:20:02;;;;;;;6.05;4.65;;;11.70;99.90;;;;;;5054136;28;20582;-79
2021/04/24 10:22:30;;;;;;;7.75;5.93;;;11.40;99.90;;;;;;5056103;28;20401;-78
2021/04/24 10:24:57;;;;;;;8.70;6.63;;;11.20;99.90;;;;;;5054772;28;20199;-79
2021/04/24 10:27:23;;;;;;;5.40;4.65;;;10.90;99.90;;;;;;5035258;28;20198;-79
2021/04/24 10:29:50;;;;;;;7.78;4.65;;;10.90;99.90;;;;;;5047585;28;20199;-79
2021/04/24 10:32:18;;;;;;;8.32;5.47;;;11.10;99.90;;;;;;5017528;28;20261;-79
2021/04/24 10:34:45;;;;;;;9.27;5.93;;;11.00;99.90;;;;;;5036690;28;20572;-79
2021/04/24 10:37:12;;;;;;;8.70;5.30;;;11.70;99.90;;;;;;5041960;28;20732;-79
2021/04/24 10:39:40;;;;;;;7.45;6.40;;;12.30;99.90;;;;;;5049249;28;20187;-78
2021/04/24 10:42:19;;;;;;;6.60;4.60;;;12.40;99.90;;;;;;5052091;28;20223;-78
2021/04/24 10:44:48;;;;;;;6.28;5.25;;;12.50;99.90;;;;;;5056492;28;20199;-79
2021/04/24 11:03:55;;;;;;;8.30;5.03;;;12.20;99.90;;;;;;5050905;28;20218;-79
2021/04/24 11:07:04;;;;;;;7.05;5.20;;;12.10;99.90;;;;;;5056770;28;20205;-79
2021/04/24 11:09:30;;;;;;;6.97;5.82;;;12.50;99.90;;;;;;5055487;28;20195;-78
2021/04/24 11:11:57;;;;;;;9.07;6.35;;;12.70;99.90;;;;;;5054130;28;20215;-79
2021/04/24 11:14:24;;;;;;;7.85;4.97;;;13.00;99.90;;;;;;5058470;28;20266;-78
2021/04/24 11:16:54;;;;;;;9.60;5.00;;;13.30;99.90;;;;;;5056659;28;20674;-79
2021/04/24 11:19:44;;;;;;;8.93;5.30;;;13.70;99.90;;;;;;5062610;28;20191;-78
2021/04/24 11:22:31;;;;;;;9.23;5.78;;;13.80;99.90;;;;;;5058961;28;20215;-79
2021/04/24 11:25:30;;;;;;;6.05;4.95;;;13.70;99.90;;;;;;5049526;28;20191;-78
2021/04/24 11:28:04;;;;;;;8.90;5.38;;;13.20;99.90;;;;;;5073576;28;20208;-78
2021/04/24 11:30:50;;;;;;;6.47;3.80;;;12.20;99.90;;;;;;5055074;28;20294;-78
2021/04/24 11:33:37;;;;;;;7.47;5.60;;;12.40;99.90;;;;;;5065388;28;20219;-78
2021/04/24 11:36:20;;;;;;;11.98;6.15;;;12.60;99.90;;;;;;5057075;28;20611;-79
2021/04/24 11:39:10;;;;;;;6.05;4.72;;;12.80;99.90;;;;;;5055468;28;20230;-78
2021/04/24 11:41:38;;;;;;;10.68;5.20;;;13.10;99.90;;;;;;5017338;28;20195;-78
2021/04/24 11:44:38;;;;;;;7.30;4.13;;;13.90;99.90;;;;;;5054954;28;20222;-79
2021/04/24 11:47:04;;;;;;;6.50;3.65;;;14.40;99.90;;;;;;5017856;28;20200;-78
2021/04/24 11:49:48;;;;;;;7.53;4.30;;;15.30;99.90;;;;;;5047548;28;20202;-79
2021/04/24 11:52:16;;;;;;;7.57;4.82;;;15.30;99.90;;;;;;5060223;28;20569;-78
2021/04/24 11:54:43;;;;;;;6.18;4.10;;;14.70;99.90;;;;;;5038724;28;20257;-79
2021/04/24 11:57:12;;;;;;;6.05;4.05;;;14.00;99.90;;;;;;5059417;28;20195;-79
2021/04/24 11:59:41;;;;;;;5.07;3.58;;;13.40;99.90;;;;;;5070067;28;20670;-78
2021/04/24 12:02:16;;;;;;;5.03;4.22;;;13.40;99.90;;;;;;5052447;28;20265;-78
2021/04/24 12:04:45;;;;;;;5.82;4.00;;;13.90;99.90;;;;;;5054064;28;20207;-78
2021/04/24 12:07:13;;;;;;;4.97;3.83;;;14.30;99.90;;;;;;5037881;28;20188;-79
2021/04/24 12:09:52;;;;;;;17.50;11.13;;;14.10;99.90;;;;;;5051945;28;20198;-78
2021/04/24 12:12:21;;;;;;;5.05;3.63;;;14.10;99.90;;;;;;5060253;28;20211;-79
2021/04/24 12:15:00;;;;;;;7.38;4.55;;;14.90;99.90;;;;;;5074789;28;20199;-79
2021/04/24 12:17:27;;;;;;;7.60;3.85;;;15.00;99.90;;;;;;5026174;28;20199;-79
2021/04/24 12:19:54;;;;;;;7.82;4.63;;;14.90;99.90;;;;;;5057774;28;20291;-79
2021/04/24 12:22:21;;;;;;;6.32;4.30;;;14.70;99.90;;;;;;5058561;28;20247;-79
2021/04/24 12:25:01;;;;;;;6.00;3.90;;;14.20;99.90;;;;;;5054986;28;20278;-79
2021/04/24 12:32:28;;;;;;;6.60;4.28;;;13.90;99.90;;;;;;5055370;28;20738;-79
2021/04/24 12:37:44;;;;;;;8.50;4.22;;;14.40;99.90;;;;;;5397269;23;20235;-78
2021/04/24 12:40:16;;;;;;;7.53;4.25;;;15.10;99.90;;;;;;5063805;28;20211;-79
2021/04/24 12:43:21;;;;;;;4.53;3.78;;;15.90;99.90;;;;;;5050019;28;20223;-80
2021/04/24 12:45:49;;;;;;;6.43;4.10;;;16.80;99.90;;;;;;4994403;28;20237;-81
2021/04/24 12:48:17;;;;;;;8.07;6.03;;;16.40;99.90;;;;;;5001957;28;20253;-81
2021/04/24 12:50:46;;;;;;;9.07;4.78;;;15.80;99.90;;;;;;5005794;23;20233;-33
2021/04/24 12:53:27;;;;;;;7.53;4.60;;;15.60;99.90;;;;;;4971138;28;20681;-33
2021/04/24 12:56:01;;;;;;;6.00;4.00;;;15.40;99.90;;;;;;4956220;28;20709;-34
2021/04/24 12:58:31;;;;;;;7.93;4.43;;;15.20;99.90;;;;;;4956753;28;20226;-35
2021/04/24 13:01:09;;;;;;;4.63;3.47;;;15.70;99.90;;;;;;4973215;28;20217;-35
2021/04/24 13:03:38;;;;;;;4.93;3.67;;;16.10;99.90;;;;;;4976577;28;20227;-33
2021/04/24 13:06:12;;;;;;;4.60;3.13;;;15.50;99.90;;;;;;4972751;28;20904;-33
2021/04/24 13:08:39;;;;;;;5.35;3.47;;;15.00;99.90;;;;;;4983957;28;20220;-33
2021/04/24 13:11:09;;;;;;;5.60;3.53;;;14.70;99.90;;;;;;4985820;28;20193;-35
2021/04/24 13:13:37;;;;;;;4.75;4.22;;;15.10;99.90;;;;;;4981931;28;20202;-33
2021/04/24 13:16:05;;;;;;;5.43;2.92;;;15.80;99.90;;;;;;4981856;28;20213;-34
2021/04/24 13:18:41;;;;;;;4.90;3.10;;;16.30;99.90;;;;;;4982004;28;20210;-36
2021/04/24 13:21:23;;;;;;;6.85;3.60;;;16.60;99.90;;;;;;4983530;28;20469;-34
2021/04/24 13:24:08;;;;;;;4.97;3.75;;;16.90;99.90;;;;;;4981543;28;20226;-35
2021/04/24 13:26:37;;;;;;;3.17;2.65;;;17.00;99.90;;;;;;4982665;28;20205;-35
2021/04/24 13:29:12;;;;;;;3.20;2.47;;;17.50;99.90;;;;;;4980258;28;20256;-33
2021/04/24 13:31:39;;;;;;;4.38;2.92;;;16.50;99.90;;;;;;4981697;28;20204;-34
2021/04/24 13:34:33;;;;;;;5.43;3.72;;;16.70;99.90;;;;;;4983281;28;20204;-33
2021/04/24 13:37:02;;;;;;;4.57;3.53;;;17.60;99.90;;;;;;4982935;28;20201;-34
2021/04/24 13:39:30;;;;;;;7.40;3.47;;;17.50;99.90;;;;;;4982240;28;20233;-34
2021/04/24 13:42:06;;;;;;;5.32;3.15;;;16.70;99.90;;;;;;4980955;28;20200;-35
2021/04/24 13:44:32;;;;;;;4.38;3.15;;;17.40;99.90;;;;;;4975943;28;20228;-33
2021/04/24 13:46:59;;;;;;;5.80;3.10;;;17.40;99.90;;;;;;4979490;28;20281;-33
2021/04/24 13:49:26;;;;;;;7.95;3.03;;;17.80;99.90;;;;;;4977425;28;20224;-33
2021/04/24 13:51:55;;;;;;;6.93;2.95;;;18.10;99.90;;;;;;5001998;28;20212;-32